Terminal Aerodrome Forecast
Issued by NWS

Home | Current Version | Previous Version | Text Only | Print | Product List | Glossary On
Versions: 1 2 3 4 5 6 7 8 9 10 11 12 13 14 15 16 17 18
552
FTUS44 KMAF 251915 AAA
TAFHOB
TAF AMD
KHOB 251915Z 2519/2618 23021G31KT P6SM FEW100 SCT250
     FM260200 24010KT P6SM SKC
     FM261200 26010KT P6SM FEW250
     FM261600 23016G26KT P6SM SCT250=

USA.gov is the U.S. government's official web portal to all federal, state and local government web resources and services.